Robbinston, ME (04671)

6:43 PM EDT on September 27, 2016 (GMT -0400)
River Road | | Change Station

Elev 65 ft 45.08 °N, 67.11 °W | Updated 4 minutes ago

Overcast
Overcast
55.0 °F
Feels Like 55.0 °F
N
1.9
Wind Variable Wind from North
Gusts 6.2 mph

Today
High -- | Low -- °F
--% Chance of Precip.
Yesterday
High -- | Low -- °F
Precip. -- in
Pressure 30.02 in
Visibility 10.0 miles
Clouds Mostly Cloudy 2800 ft
Overcast 4900 ft
Dew Point 52 °F
Humidity 88%
Rainfall 0.14 in
Snow Depth Not available.
6:22 AM 6:15 PM
Waning Crescent, 9% visible
SPECI KHUL 272238Z AUTO 06004KT 10SM BKN028 OVC049 11/07 A3002 RMK AO2 T01060072
Pressure 30.02 in
Visibility 10.0 miles
Clouds Mostly Cloudy 2800 ft
Overcast 4900 ft
Dew Point 52 °F
Humidity 88%
Rainfall 0.14 in
Snow Depth Not available.
6:22 AM 6:15 PM
Waning Crescent, 9% visible
SPECI KHUL 272238Z AUTO 06004KT 10SM BKN028 OVC049 11/07 A3002 RMK AO2 T01060072

10-Day Weather Forecast

Almanac

Astronomy

Sep. 27, 2016 Rise Set
Actual Time
Civil Twilight
Nautical Twilight
Astronomical Twilight
Moon
Length of Visible Light
Length of Day
Tomorrow will be .
, % of the Moon is Illuminated

Today's Extremes

State Highs State Lows

Community

WunderPhotos

Upload Photos

1,942,174 photos uploaded!

WunderBlog® & News

Nearby

Air Quality

  Air Quality AQ Index Pollutant
Not available.

Snow Depth

Station Depth Elevation

Earthquake Activity

City Distance Mag. Time & Date
Minimum magnitude displayed is 2.5.

Coastal Water Temperatures

Place Temperature

Stations

Nearby Weather Stations

Station Location Temp. Windchill Dew Point Humidity Wind Precip. Elev Updated Type
                   

Watches & Warnings

There are currently no watches in effect.